Latest Weather Observations for Lismore Airport

IDN60801

Issued at 7:35 pm EST Wednesday 23 April 2014 (issued every 30 minutes, with the page automatically refreshed every 10 minutes)

About weather observations | Map of weather stations | Latest weather observations for NSW | Other Formats
Station Details ID: 058214 Name: LISMORE AIRPORT AWS Lat: -28.83 Lon: 153.26 Height: 9.21 m
Data from the previous 72 hours. | See also: Recent months for locations in New South Wales
Date/Time
EST
Temp
°C
App
Temp
°C
Dew
Point
Rel
Hum
%
Delta-T
°C
Wind Press
QNH
hPa
Press
MSL
hPa
Rain
since 9 am
mm
Dir
 
Spd
km/h
Gust
km/h
Spd
kts
Gust
kts
23/07:30pm 17.4 18.5 17.2 99 0.1 N 7 9 4 5 1016.7 - 0.0
23/07:00pm 18.3 19.1 18.1 99 0.1 N 11 13 6 7 1016.7 - 0.0
23/06:30pm 21.6 23.3 20.2 92 0.9 NNE 11 17 6 9 1016.3 - 0.0
23/06:00pm 22.6 23.4 19.9 85 1.7 NE 15 22 8 12 1015.9 1015.9 0.0
23/05:30pm 23.3 23.7 19.9 81 2.2 ENE 17 24 9 13 1015.5 - 0.0
23/05:00pm 24.4 24.9 20.1 77 2.8 ENE 17 22 9 12 1015.3 - 0.0
23/04:30pm 25.3 25.6 20.3 74 3.3 ENE 19 24 10 13 1015.2 - 0.0
23/04:00pm 26.2 27.3 21.2 74 3.3 ENE 17 22 9 12 1015.1 - 0.0
23/03:30pm 27.0 27.8 21.3 71 3.8 ENE 19 22 10 12 1015.2 - 0.0
23/03:00pm 28.4 30.4 18.8 56 6.2 WNW 6 13 3 7 1015.2 1015.2 0.0
23/02:30pm 28.4 30.6 19.3 57 5.9 N 6 9 3 5 1015.3 - 0.0
23/02:00pm 28.6 30.2 19.2 56 6.1 WSW 9 15 5 8 1015.4 - 0.0
23/01:30pm 28.6 30.2 19.2 56 6.1 WNW 9 17 5 9 1015.5 - 0.0
23/01:00pm 28.6 31.5 20.6 62 5.3 NNW 6 11 3 6 1015.9 - 0.0
23/12:30pm 28.0 30.7 20.6 64 4.9 SSE 7 9 4 5 1016.4 - 0.0
23/12:00pm 27.7 30.3 20.5 65 4.7 SSE 7 13 4 7 1016.8 1016.8 0.0
23/11:30am 27.1 29.6 19.9 64 4.7 NNW 6 13 3 7 1017.4 - 0.0
23/11:00am 26.4 30.0 21.2 73 3.4 N 4 9 2 5 1018.1 - 0.0
23/10:30am 25.4 29.3 21.9 81 2.3 SSW 4 7 2 4 1018.7 - 0.0
23/10:00am 24.7 28.8 22.2 86 1.7 E 4 9 2 5 1019.0 - 0.0
23/09:30am 22.3 25.9 20.6 90 1.1 SE 2 9 1 5 1019.2 - 0.0
23/09:00am 20.5 22.3 20.3 99 0.1 N 11 13 6 7 1019.5 1019.5 0.0
23/08:30am 18.0 18.6 17.8 99 0.1 N 11 15 6 8 1019.4 - 0.0
23/08:00am 16.4 16.1 16.4 100 0.0 N 13 17 7 9 1019.5 - 0.0
23/07:30am 14.5 13.9 14.5 100 0.0 N 11 13 6 7 1019.5 - 0.0
23/07:00am 13.1 11.6 13.1 100 0.0 N 13 15 7 8 1019.4 - 0.0
23/06:30am 12.7 11.1 12.7 100 0.0 N 13 17 7 9 1019.2 - 0.0
23/06:00am 13.5 12.1 13.5 100 0.0 N 13 17 7 9 1018.8 1018.8 0.0
23/05:30am 13.6 12.3 13.6 100 0.0 N 13 17 7 9 1018.5 - 0.0
23/05:00am 12.9 11.3 12.9 100 0.0 N 13 15 7 8 1018.4 - 0.0
23/04:30am 13.1 11.6 13.1 100 0.0 N 13 15 7 8 1018.2 - 0.0
23/04:00am 13.9 13.1 13.9 100 0.0 NNE 11 11 6 6 1018.0 - 0.0
23/03:30am 12.8 13.7 12.8 100 0.0 CALM 0 0 0 0 1018.0 - 0.0
23/03:00am 13.3 12.3 13.3 100 0.0 N 11 13 6 7 1017.7 1017.7 0.0
23/02:30am 13.4 12.4 13.4 100 0.0 N 11 13 6 7 1018.0 - 0.0
23/02:21am 13.5 12.5 13.5 100 0.0 N 11 13 6 7 1018.1 - 0.0
23/02:00am 12.2 11.7 12.2 100 0.0 N 6 7 3 4 1018.1 - 0.0
23/01:30am 13.5 12.9 13.5 100 0.0 N 9 9 5 5 1018.4 - 0.0
23/01:26am 13.0 12.2 13.0 100 0.0 N 9 9 5 5 1018.4 - 0.0
23/01:17am 12.7 11.8 12.7 100 0.0 N 9 11 5 6 1018.4 - 0.0
23/01:00am 13.2 13.1 13.2 100 0.0 N 6 7 3 4 1018.5 - 0.0
23/12:58am 13.2 13.1 13.2 100 0.0 N 6 7 3 4 1018.6 - 0.0
23/12:30am 13.5 14.6 13.5 100 0.0 CALM 0 0 0 0 1018.5 - 0.0
23/12:00am 14.0 15.3 14.0 100 0.0 NW 0 0 0 0 1018.5 1018.5 0.0
 
Date/Time
EST
Temp
°C
App
Temp
°C
Dew
Point
Rel
Hum
%
Delta-T
°C
Wind Press
QNH
hPa
Press
MSL
hPa
Rain
since 9 am
mm
Dir
 
Spd
km/h
Gust
km/h
Spd
kts
Gust
kts
22/11:30pm 14.7 14.1 14.7 100 0.0 N 11 11 6 6 1018.8 - 0.0
22/11:00pm 15.2 15.8 15.2 100 0.0 NNE 6 11 3 6 1018.8 - 0.0
22/10:30pm 15.3 14.9 15.3 100 0.0 N 11 13 6 7 1018.8 - 0.0
22/10:00pm 15.5 14.8 15.5 100 0.0 N 13 13 7 7 1018.8 - 0.0
22/09:30pm 15.8 15.6 15.6 99 0.1 N 11 13 6 7 1018.9 - 0.0
22/09:00pm 16.4 16.4 16.2 99 0.1 N 11 13 6 7 1018.9 1018.9 0.0
22/08:30pm 16.6 16.7 16.4 99 0.1 N 11 13 6 7 1018.8 - 0.0
22/08:00pm 18.2 18.5 18.0 99 0.1 N 13 15 7 8 1018.8 - 0.0
22/07:30pm 19.7 21.0 19.4 98 0.2 NNE 11 15 6 8 1018.7 - 0.0
22/07:00pm 20.7 21.9 19.9 95 0.5 NNE 13 17 7 9 1018.6 - 0.0
22/06:30pm 21.6 22.4 19.9 90 1.1 NE 15 20 8 11 1018.2 - 0.0
22/06:00pm 22.0 22.5 20.1 89 1.2 NE 17 22 9 12 1017.8 1017.8 0.0
22/05:30pm 22.6 23.1 20.1 86 1.6 NE 17 24 9 13 1017.7 - 0.0
22/05:00pm 23.9 23.6 20.4 81 2.3 NE 22 28 12 15 1017.4 - 0.0
22/04:30pm 24.9 24.9 21.0 79 2.6 NE 22 28 12 15 1017.4 - 0.0
22/04:00pm 25.6 26.5 21.5 78 2.7 ENE 19 24 10 13 1017.4 - 0.0
22/03:30pm 26.4 27.8 21.8 76 3.1 ENE 17 26 9 14 1017.4 - 0.0
22/03:00pm 27.0 28.5 22.0 74 3.3 NNE 17 24 9 13 1017.6 1017.6 0.0
22/02:30pm 26.9 28.7 21.2 71 3.8 ENE 13 20 7 11 1017.6 - 0.0
22/02:00pm 27.7 30.8 21.5 69 4.1 NE 7 13 4 7 1017.5 - 0.0
22/01:30pm 27.4 31.3 21.9 72 3.7 NE 4 11 2 6 1017.9 - 0.0
22/01:00pm 28.0 31.4 22.7 73 3.6 NE 9 15 5 8 1018.1 - 0.0
22/12:30pm 27.6 30.0 20.9 67 4.4 WNW 9 15 5 8 1018.8 - 0.0
22/12:00pm 27.9 31.8 22.6 73 3.6 NNW 6 20 3 11 1019.7 1019.7 0.0
22/11:30am 26.7 30.3 21.2 72 3.6 NNW 4 9 2 5 1020.0 - 0.0
22/11:00am 26.4 29.5 21.4 74 3.3 N 7 11 4 6 1020.3 - 0.0
22/10:30am 25.4 29.5 22.3 83 2.1 N 4 13 2 7 1020.6 - 0.0
22/10:00am 24.3 27.6 20.8 81 2.3 N 4 7 2 4 1021.1 - 0.0
22/09:30am 23.0 26.1 21.4 91 1.1 NNE 7 9 4 5 1021.4 - 0.0
22/09:00am 21.2 24.1 21.0 99 0.1 N 7 13 4 7 1021.7 1021.7 0.0
22/08:30am 18.3 19.1 18.1 99 0.1 N 11 13 6 7 1021.6 - 0.0
22/08:00am 17.0 17.7 17.0 100 0.0 N 9 11 5 6 1021.6 - 0.0
22/07:30am 15.5 15.6 15.5 100 0.0 N 9 11 5 6 1021.4 - 0.0
22/07:00am 14.2 13.1 14.2 100 0.0 N 13 17 7 9 1021.2 - 0.0
22/06:58am 14.2 13.1 14.2 100 0.0 N 13 17 7 9 1021.2 - 0.0
22/06:51am 14.1 12.6 14.1 100 0.0 N 15 19 8 10 1021.2 - 0.0
22/06:40am 13.2 11.7 13.2 100 0.0 N 13 17 7 9 1021.1 - 0.0
22/06:36am 13.0 11.5 13.0 100 0.0 N 13 17 7 9 1021.0 - 0.0
22/06:32am 13.0 11.5 13.0 100 0.0 N 13 17 7 9 1021.0 - 0.0
22/06:30am 12.9 11.3 12.9 100 0.0 N 13 15 7 8 1021.0 - 0.0
22/06:07am 12.8 12.0 12.8 100 0.0 N 9 11 5 6 1020.9 - 0.0
22/06:00am 12.5 11.6 12.5 100 0.0 N 9 11 5 6 1020.8 1020.8 0.0
22/05:30am 11.4 11.5 11.4 100 0.0 N 2 11 1 6 1020.6 - 0.0
22/05:00am 10.8 11.1 10.8 100 0.0 CALM 0 0 0 0 1020.3 - 0.0
22/04:57am 10.7 10.9 10.7 100 0.0 CALM 0 0 0 0 1020.2 - 0.0
22/04:54am 11.0 11.3 11.0 100 0.0 CALM 0 0 0 0 1020.2 - 0.0
22/04:30am 12.1 12.8 12.1 100 0.0 CALM 0 0 0 0 1020.2 - 0.0
22/04:18am 11.4 11.8 11.4 100 0.0 CALM 0 0 0 0 1020.1 - 0.0
22/04:14am 11.5 12.0 11.5 100 0.0 CALM 0 0 0 0 1020.0 - 0.0
22/04:09am 12.2 12.9 12.2 100 0.0 CALM 0 0 0 0 1019.9 - 0.0
22/04:05am 11.6 12.1 11.6 100 0.0 CALM 0 0 0 0 1019.9 - 0.0
22/04:03am 11.1 11.5 11.1 100 0.0 CALM 0 0 0 0 1019.8 - 0.0
22/04:02am 11.4 11.8 11.4 100 0.0 CALM 0 0 0 0 1019.8 - 0.0
22/04:00am 11.5 12.0 11.5 100 0.0 CALM 0 0 0 0 1019.8 - 0.0
22/03:58am 11.4 11.8 11.4 100 0.0 CALM 0 0 0 0 1019.8 - 0.0
22/03:57am 11.3 11.7 11.3 100 0.0 CALM 0 0 0 0 1019.8 - 0.0
22/03:56am 11.1 11.5 11.1 100 0.0 CALM 0 0 0 0 1019.8 - 0.0
22/03:53am 11.0 11.3 11.0 100 0.0 CALM 0 0 0 0 1019.8 - 0.0
22/03:52am 10.9 11.2 10.9 100 0.0 CALM 0 0 0 0 1019.8 - 0.0
22/03:51am 11.0 11.3 11.0 100 0.0 CALM 0 0 0 0 1019.7 - 0.0
22/03:50am 11.4 11.8 11.4 100 0.0 CALM 0 0 0 0 1019.7 - 0.0
22/03:49am 11.5 12.0 11.5 100 0.0 CALM 0 0 0 0 1019.7 - 0.0
22/03:48am 11.3 11.7 11.3 100 0.0 CALM 0 0 0 0 1019.8 - 0.0
22/03:47am 11.0 11.3 11.0 100 0.0 CALM 0 0 0 0 1019.8 - 0.0
22/03:30am 12.3 13.0 12.3 100 0.0 CALM 0 0 0 0 1019.7 - 0.0
22/03:25am 12.0 12.6 12.0 100 0.0 CALM 0 0 0 0 1019.6 - 0.0
22/03:22am 12.5 13.3 12.5 100 0.0 CALM 0 0 0 0 1019.6 - 0.0
22/03:21am 11.9 12.5 11.9 100 0.0 CALM 0 0 0 0 1019.6 - 0.0
22/03:18am 12.3 13.0 12.3 100 0.0 CALM 0 0 0 0 1019.5 - 0.0
22/03:07am 13.1 14.1 13.1 100 0.0 CALM 0 0 0 0 1019.5 - 0.0
22/03:05am 12.5 13.3 12.5 100 0.0 CALM 0 0 0 0 1019.5 - 0.0
22/03:01am 12.8 13.7 12.8 100 0.0 CALM 0 0 0 0 1019.4 - 0.0
22/03:00am 13.0 13.9 13.0 100 0.0 CALM 0 0 0 0 1019.4 1019.4 0.0
22/02:58am 13.2 14.2 13.2 100 0.0 CALM 0 0 0 0 1019.4 - 0.0
22/02:57am 13.2 14.2 13.2 100 0.0 CALM 0 0 0 0 1019.4 - 0.0
22/02:55am 13.0 13.9 13.0 100 0.0 CALM 0 0 0 0 1019.4 - 0.0
22/02:44am 12.6 13.4 12.6 100 0.0 CALM 0 0 0 0 1019.5 - 0.0
22/02:34am 13.0 13.9 13.0 100 0.0 CALM 0 0 0 0 1019.4 - 0.0
22/02:30am 13.3 14.3 13.3 100 0.0 CALM 0 0 0 0 1019.4 - 0.0
22/02:27am 13.2 14.2 13.2 100 0.0 CALM 0 0 0 0 1019.5 - 0.0
22/02:17am 12.5 13.3 12.5 100 0.0 CALM 0 0 0 0 1019.5 - 0.0
22/02:00am 12.9 13.7 12.7 99 0.1 CALM 0 0 0 0 1019.5 - 0.0
22/01:30am 13.3 13.5 13.1 99 0.1 N 4 7 2 4 1019.5 - 0.0
22/01:00am 14.6 14.9 14.6 100 0.0 NNE 6 9 3 5 1019.6 - 0.0
22/12:30am 15.4 15.8 15.4 100 0.0 NNE 7 9 4 5 1019.5 - 0.0
22/12:00am 14.8 15.2 14.8 100 0.0 N 6 9 3 5 1019.7 1019.7 0.0
 
Date/Time
EST
Temp
°C
App
Temp
°C
Dew
Point
Rel
Hum
%
Delta-T
°C
Wind Press
QNH
hPa
Press
MSL
hPa
Rain
since 9 am
mm
Dir
 
Spd
km/h
Gust
km/h
Spd
kts
Gust
kts
21/11:30pm 15.0 14.5 15.0 100 0.0 N 11 13 6 7 1019.7 - 0.0
21/11:00pm 15.3 14.6 15.3 100 0.0 N 13 15 7 8 1019.8 - 0.0
21/10:30pm 15.7 15.1 15.7 100 0.0 N 13 15 7 8 1019.9 - 0.0
21/10:00pm 16.2 15.4 16.0 99 0.1 N 15 17 8 9 1019.7 - 0.0
21/09:30pm 16.8 16.6 16.6 99 0.1 N 13 15 7 8 1019.6 - 0.0
21/09:00pm 16.9 17.1 16.7 99 0.1 N 11 13 6 7 1019.6 1019.6 0.0
21/08:30pm 18.6 19.1 18.4 99 0.1 N 13 13 7 7 1019.4 - 0.0
21/08:00pm 19.2 20.0 19.0 99 0.1 N 13 15 7 8 1019.2 - 0.0
21/07:30pm 19.4 20.7 19.2 99 0.1 N 11 13 6 7 1018.9 - 0.0
21/07:00pm 20.1 21.2 19.6 97 0.3 N 13 15 7 8 1018.6 - 0.0
21/06:30pm 22.6 23.4 20.7 89 1.2 NE 17 20 9 11 1018.2 - 0.0
21/06:00pm 23.4 23.9 20.9 86 1.6 ENE 19 24 10 13 1017.7 1017.7 0.0
21/05:30pm 24.3 24.3 20.2 78 2.7 NE 20 26 11 14 1017.5 - 0.0
21/05:00pm 25.2 24.8 19.3 70 3.8 ENE 20 30 11 16 1017.2 - 0.0
21/04:30pm 26.3 26.6 20.4 70 3.9 NE 19 24 10 13 1017.0 - 0.0
21/04:00pm 27.7 30.5 20.8 66 4.6 NNW 7 11 4 6 1016.8 - 0.0
21/03:30pm 27.7 29.2 19.8 62 5.1 N 11 19 6 10 1016.7 - 0.0
21/03:00pm 28.9 30.2 19.2 55 6.3 N 11 20 6 11 1016.8 1016.8 0.0
21/02:30pm 29.6 31.4 19.6 55 6.5 WNW 9 19 5 10 1017.0 - 0.0
21/02:00pm 29.6 32.8 20.5 58 6.0 W 4 9 2 5 1017.2 - 0.0
21/01:30pm 29.6 32.3 21.3 61 5.6 WNW 9 22 5 12 1017.6 - 0.0
21/01:00pm 29.4 32.0 20.5 58 5.9 N 7 11 4 6 1017.9 - 0.0
21/12:30pm 28.3 31.4 21.1 65 4.8 NW 6 13 3 7 1018.2 - 0.0
21/12:00pm 28.5 32.4 21.8 67 4.5 SE 4 7 2 4 1018.8 1018.8 0.0
21/11:30am 27.4 30.4 21.2 69 4.1 W 7 11 4 6 1019.3 - 0.0
21/11:00am 26.6 29.1 21.1 72 3.6 WNW 9 13 5 7 1019.7 - 0.0
21/10:30am 25.3 27.8 21.0 77 2.8 NNW 9 11 5 6 1020.0 - 0.0
21/10:00am 23.9 27.0 21.0 84 1.9 ENE 6 9 3 5 1020.3 - 0.0
21/09:30am 22.0 25.2 20.6 92 0.9 NNW 4 9 2 5 1020.5 - 0.0
21/09:00am 20.1 22.6 19.9 99 0.1 N 6 9 3 5 1020.6 1020.6 0.0
21/08:30am 17.4 18.2 17.2 99 0.1 N 9 11 5 6 1020.6 - 0.0
21/08:00am 15.5 15.6 15.5 100 0.0 N 9 11 5 6 1020.6 - 0.0
21/07:30am 13.5 12.5 13.5 100 0.0 N 11 13 6 7 1020.3 - 0.0
21/07:13am 12.7 11.5 12.7 100 0.0 N 11 13 6 7 1020.1 - 0.0
21/07:07am 12.4 11.4 12.4 100 0.0 N 9 13 5 7 1020.0 - 0.0
21/07:00am 12.1 11.4 12.1 100 0.0 N 7 9 4 5 1020.0 - 0.0
21/06:53am 11.5 10.6 11.5 100 0.0 N 7 9 4 5 1019.9 - 0.0
21/06:30am 10.4 10.6 10.4 100 0.0 CALM 0 0 0 0 1019.6 - 0.0
21/06:16am 10.0 10.1 10.0 100 0.0 CALM 0 0 0 0 1019.4 - 0.0
21/06:13am 10.3 10.4 10.3 100 0.0 CALM 0 0 0 0 1019.3 - 0.0
21/06:07am 11.0 11.3 11.0 100 0.0 CALM 0 0 0 0 1019.2 - 0.0
21/06:00am 10.6 10.8 10.6 100 0.0 CALM 0 0 0 0 1019.2 1019.2 0.0
21/05:56am 10.4 10.6 10.4 100 0.0 CALM 0 0 0 0 1019.2 - 0.0
21/05:52am 10.3 10.4 10.3 100 0.0 CALM 0 0 0 0 1019.1 - 0.0
21/05:30am 9.7 9.7 9.7 100 0.0 CALM 0 0 0 0 1018.9 - 0.0
21/05:00am 9.6 9.5 9.6 100 0.0 CALM 0 0 0 0 1018.7 - 0.0
21/04:30am 9.9 9.9 9.9 100 0.0 CALM 0 0 0 0 1018.4 - 0.0
21/04:00am 9.6 9.5 9.6 100 0.0 CALM 0 0 0 0 1018.1 - 0.0
21/03:30am 11.0 11.3 11.0 100 0.0 CALM 0 0 0 0 1017.8 - 0.0
21/03:00am 11.0 10.6 11.0 100 0.0 NW 4 6 2 3 1017.7 1017.7 0.0
21/02:35am 11.7 10.9 11.7 100 0.0 N 7 7 4 4 1017.6 - 0.0
21/02:30am 12.0 11.5 12.0 100 0.0 N 6 7 3 4 1017.6 - 0.0
21/02:23am 12.8 12.5 12.8 100 0.0 N 6 9 3 5 1017.6 - 0.0
21/02:15am 13.1 12.9 13.1 100 0.0 N 6 9 3 5 1017.7 - 0.0
21/02:00am 13.3 13.0 13.3 100 0.0 NNE 7 9 4 5 1017.7 - 0.0
21/01:30am 13.7 13.2 13.7 100 0.0 N 9 11 5 6 1017.8 - 0.0
21/01:00am 14.1 13.3 14.1 100 0.0 N 11 13 6 7 1017.9 - 0.0
21/12:30am 15.7 14.7 15.7 100 0.0 N 15 17 8 9 1017.8 - 0.0
21/12:00am 15.3 14.2 15.3 100 0.0 N 15 17 8 9 1017.8 1017.8 0.0
 
Date/Time
EST
Temp
°C
App
Temp
°C
Dew
Point
Rel
Hum
%
Delta-T
°C
Wind Press
QNH
hPa
Press
MSL
hPa
Rain
since 9 am
mm
Dir
 
Spd
km/h
Gust
km/h
Spd
kts
Gust
kts
20/11:30pm 15.0 13.8 15.0 100 0.0 N 15 17 8 9 1017.8 - 0.0
20/11:00pm 15.3 14.2 15.3 100 0.0 N 15 17 8 9 1017.8 - 0.0
20/10:30pm 15.5 14.8 15.3 99 0.1 N 13 15 7 8 1018.0 - 0.0
20/10:00pm 15.9 15.4 15.9 100 0.0 NNW 13 15 7 8 1017.9 - 0.0
20/09:30pm 15.5 15.1 15.3 99 0.1 N 11 13 6 7 1017.8 - 0.0
20/09:00pm 17.0 17.2 16.8 99 0.1 N 11 13 6 7 1017.6 1017.6 0.0
20/08:30pm 17.0 17.2 16.8 99 0.1 N 11 13 6 7 1017.5 - 0.0
20/08:00pm 17.4 17.4 17.2 99 0.1 NNW 13 15 7 8 1017.4 - 0.0

Other Formats:

Comma delimited format used in spreadsheet applications
http://www.bom.gov.au/fwo/IDN60801/IDN60801.94572.axf

JavaScript Object Notation format (JSON) in row-major order
http://www.bom.gov.au/fwo/IDN60801/IDN60801.94572.json